sensor_id;sensor_type;location;lat;lon;timestamp;P1;durP1;ratioP1;P2;durP2;ratioP2
16139;SDS011;8175;49.326;12.690;2023-05-09T00:00:00;3.63;;;3.33;;
16139;SDS011;8175;49.326;12.690;2023-05-09T00:02:26;5.07;;;4.13;;
16139;SDS011;8175;49.326;12.690;2023-05-09T00:04:53;4.10;;;3.33;;
16139;SDS011;8175;49.326;12.690;2023-05-09T00:07:20;3.67;;;3.37;;
16139;SDS011;8175;49.326;12.690;2023-05-09T00:09:46;3.43;;;3.13;;
16139;SDS011;8175;49.326;12.690;2023-05-09T00:12:12;3.27;;;2.97;;
16139;SDS011;8175;49.326;12.690;2023-05-09T00:14:37;3.40;;;3.10;;
16139;SDS011;8175;49.326;12.690;2023-05-09T00:17:04;3.03;;;2.73;;
16139;SDS011;8175;49.326;12.690;2023-05-09T00:19:31;3.17;;;2.90;;
16139;SDS011;8175;49.326;12.690;2023-05-09T00:21:57;4.10;;;3.17;;
16139;SDS011;8175;49.326;12.690;2023-05-09T00:24:23;3.00;;;2.80;;
16139;SDS011;8175;49.326;12.690;2023-05-09T00:26:49;4.93;;;2.93;;
16139;SDS011;8175;49.326;12.690;2023-05-09T00:29:14;3.47;;;3.13;;
16139;SDS011;8175;49.326;12.690;2023-05-09T00:31:40;3.30;;;3.00;;
16139;SDS011;8175;49.326;12.690;2023-05-09T00:34:05;3.30;;;3.00;;
16139;SDS011;8175;49.326;12.690;2023-05-09T00:36:31;2.70;;;2.47;;
16139;SDS011;8175;49.326;12.690;2023-05-09T00:38:57;3.90;;;3.50;;
16139;SDS011;8175;49.326;12.690;2023-05-09T00:41:22;3.07;;;2.77;;
16139;SDS011;8175;49.326;12.690;2023-05-09T00:43:48;3.60;;;3.30;;
16139;SDS011;8175;49.326;12.690;2023-05-09T00:46:14;3.37;;;3.07;;
16139;SDS011;8175;49.326;12.690;2023-05-09T00:48:39;3.57;;;3.27;;
16139;SDS011;8175;49.326;12.690;2023-05-09T00:51:05;4.53;;;3.23;;
16139;SDS011;8175;49.326;12.690;2023-05-09T00:53:31;3.53;;;3.23;;
16139;SDS011;8175;49.326;12.690;2023-05-09T00:55:57;4.03;;;3.53;;
16139;SDS011;8175;49.326;12.690;2023-05-09T00:58:24;3.87;;;3.50;;
16139;SDS011;8175;49.326;12.690;2023-05-09T01:00:50;4.10;;;3.70;;
16139;SDS011;8175;49.326;12.690;2023-05-09T01:03:15;4.10;;;3.70;;
16139;SDS011;8175;49.326;12.690;2023-05-09T01:11:12;4.17;;;3.57;;
16139;SDS011;8175;49.326;12.690;2023-05-09T01:16:40;4.47;;;4.07;;
16139;SDS011;8175;49.326;12.690;2023-05-09T01:19:35;4.47;;;4.07;;
16139;SDS011;8175;49.326;12.690;2023-05-09T01:22:25;4.13;;;3.67;;
16139;SDS011;8175;49.326;12.690;2023-05-09T01:25:05;4.07;;;3.67;;
16139;SDS011;8175;49.326;12.690;2023-05-09T01:27:57;4.27;;;3.80;;
16139;SDS011;8175;49.326;12.690;2023-05-09T01:30:37;3.60;;;3.30;;
16139;SDS011;8175;49.326;12.690;2023-05-09T01:33:05;4.10;;;3.43;;
16139;SDS011;8175;49.326;12.690;2023-05-09T01:35:32;4.80;;;4.40;;
16139;SDS011;8175;49.326;12.690;2023-05-09T01:38:01;4.00;;;3.60;;
16139;SDS011;8175;49.326;12.690;2023-05-09T01:40:31;4.23;;;3.83;;
16139;SDS011;8175;49.326;12.690;2023-05-09T01:43:00;4.13;;;3.67;;
16139;SDS011;8175;49.326;12.690;2023-05-09T01:45:29;3.90;;;3.33;;
16139;SDS011;8175;49.326;12.690;2023-05-09T01:47:58;4.63;;;4.13;;
16139;SDS011;8175;49.326;12.690;2023-05-09T01:50:24;4.20;;;3.80;;
16139;SDS011;8175;49.326;12.690;2023-05-09T01:52:54;4.10;;;3.80;;
16139;SDS011;8175;49.326;12.690;2023-05-09T01:55:21;3.77;;;3.47;;
16139;SDS011;8175;49.326;12.690;2023-05-09T01:57:51;4.97;;;4.00;;
16139;SDS011;8175;49.326;12.690;2023-05-09T02:00:18;4.70;;;4.30;;
16139;SDS011;8175;49.326;12.690;2023-05-09T02:02:45;4.70;;;4.00;;
16139;SDS011;8175;49.326;12.690;2023-05-09T02:05:11;4.50;;;4.10;;
16139;SDS011;8175;49.326;12.690;2023-05-09T04:37:16;6.17;;;5.53;;
16139;SDS011;8175;49.326;12.690;2023-05-09T04:39:42;8.13;;;6.17;;
16139;SDS011;8175;49.326;12.690;2023-05-09T04:42:07;8.10;;;7.30;;
16139;SDS011;8175;49.326;12.690;2023-05-09T04:44:33;7.80;;;7.00;;
16139;SDS011;8175;49.326;12.690;2023-05-09T04:46:59;8.73;;;6.80;;
16139;SDS011;8175;49.326;12.690;2023-05-09T04:49:25;8.73;;;7.27;;
16139;SDS011;8175;49.326;12.690;2023-05-09T04:51:50;7.43;;;6.60;;
16139;SDS011;8175;49.326;12.690;2023-05-09T04:54:16;7.63;;;6.80;;
16139;SDS011;8175;49.326;12.690;2023-05-09T05:13:00;7.73;;;6.57;;
16139;SDS011;8175;49.326;12.690;2023-05-09T05:15:26;7.47;;;6.67;;
16139;SDS011;8175;49.326;12.690;2023-05-09T05:17:51;8.73;;;7.27;;
16139;SDS011;8175;49.326;12.690;2023-05-09T05:20:17;9.70;;;7.63;;
16139;SDS011;8175;49.326;12.690;2023-05-09T05:22:43;9.20;;;7.50;;
16139;SDS011;8175;49.326;12.690;2023-05-09T05:25:08;14.10;;;7.00;;
16139;SDS011;8175;49.326;12.690;2023-05-09T05:27:34;8.53;;;7.50;;
16139;SDS011;8175;49.326;12.690;2023-05-09T05:30:00;8.93;;;7.60;;
16139;SDS011;8175;49.326;12.690;2023-05-09T05:32:26;9.20;;;7.87;;
16139;SDS011;8175;49.326;12.690;2023-05-09T05:34:51;13.83;;;12.43;;
16139;SDS011;8175;49.326;12.690;2023-05-09T05:37:17;11.53;;;8.90;;
16139;SDS011;8175;49.326;12.690;2023-05-09T05:39:43;10.83;;;7.87;;
16139;SDS011;8175;49.326;12.690;2023-05-09T05:42:08;6.90;;;6.20;;
16139;SDS011;8175;49.326;12.690;2023-05-09T05:44:34;9.60;;;8.13;;
16139;SDS011;8175;49.326;12.690;2023-05-09T05:46:59;8.37;;;7.17;;
16139;SDS011;8175;49.326;12.690;2023-05-09T05:49:25;8.57;;;7.20;;
16139;SDS011;8175;49.326;12.690;2023-05-09T05:51:51;7.07;;;6.33;;
16139;SDS011;8175;49.326;12.690;2023-05-09T05:54:16;7.80;;;5.77;;
16139;SDS011;8175;49.326;12.690;2023-05-09T05:56:42;6.83;;;5.93;;
16139;SDS011;8175;49.326;12.690;2023-05-09T05:59:07;5.67;;;5.03;;
16139;SDS011;8175;49.326;12.690;2023-05-09T06:01:33;4.40;;;3.93;;
16139;SDS011;8175;49.326;12.690;2023-05-09T06:03:59;6.90;;;5.10;;
16139;SDS011;8175;49.326;12.690;2023-05-09T06:06:27;5.13;;;4.63;;
16139;SDS011;8175;49.326;12.690;2023-05-09T06:08:53;6.77;;;4.87;;
16139;SDS011;8175;49.326;12.690;2023-05-09T06:11:19;7.83;;;5.00;;
16139;SDS011;8175;49.326;12.690;2023-05-09T06:13:45;5.13;;;4.73;;
16139;SDS011;8175;49.326;12.690;2023-05-09T06:16:11;4.37;;;3.97;;
16139;SDS011;8175;49.326;12.690;2023-05-09T06:18:37;5.00;;;4.50;;
16139;SDS011;8175;49.326;12.690;2023-05-09T06:21:04;6.10;;;4.80;;
16139;SDS011;8175;49.326;12.690;2023-05-09T06:23:33;5.10;;;4.60;;
16139;SDS011;8175;49.326;12.690;2023-05-09T06:26:00;5.33;;;4.83;;
16139;SDS011;8175;49.326;12.690;2023-05-09T06:28:27;5.20;;;4.70;;
16139;SDS011;8175;49.326;12.690;2023-05-09T06:30:52;5.10;;;4.60;;
16139;SDS011;8175;49.326;12.690;2023-05-09T06:33:18;5.30;;;4.80;;
16139;SDS011;8175;49.326;12.690;2023-05-09T06:35:44;6.60;;;5.17;;
16139;SDS011;8175;49.326;12.690;2023-05-09T06:38:09;5.90;;;5.40;;
16139;SDS011;8175;49.326;12.690;2023-05-09T06:40:35;5.23;;;4.73;;
16139;SDS011;8175;49.326;12.690;2023-05-09T06:43:01;5.60;;;5.10;;
16139;SDS011;8175;49.326;12.690;2023-05-09T06:45:26;6.20;;;5.23;;
16139;SDS011;8175;49.326;12.690;2023-05-09T06:47:52;5.70;;;5.20;;
16139;SDS011;8175;49.326;12.690;2023-05-09T06:50:18;5.47;;;5.00;;
16139;SDS011;8175;49.326;12.690;2023-05-09T06:52:43;4.50;;;3.90;;
16139;SDS011;8175;49.326;12.690;2023-05-09T06:55:09;4.57;;;4.17;;
16139;SDS011;8175;49.326;12.690;2023-05-09T06:57:35;4.50;;;3.97;;
16139;SDS011;8175;49.326;12.690;2023-05-09T07:00:00;3.93;;;3.40;;
16139;SDS011;8175;49.326;12.690;2023-05-09T07:02:26;4.43;;;3.30;;
16139;SDS011;8175;49.326;12.690;2023-05-09T07:04:52;4.37;;;3.70;;
16139;SDS011;8175;49.326;12.690;2023-05-09T07:07:17;3.73;;;3.33;;
16139;SDS011;8175;49.326;12.690;2023-05-09T07:09:44;4.57;;;3.50;;
16139;SDS011;8175;49.326;12.690;2023-05-09T07:12:09;3.00;;;2.70;;
16139;SDS011;8175;49.326;12.690;2023-05-09T07:14:35;3.60;;;3.30;;
16139;SDS011;8175;49.326;12.690;2023-05-09T07:17:00;4.17;;;3.40;;
16139;SDS011;8175;49.326;12.690;2023-05-09T07:19:26;3.80;;;3.50;;
16139;SDS011;8175;49.326;12.690;2023-05-09T07:21:51;4.10;;;3.60;;
16139;SDS011;8175;49.326;12.690;2023-05-09T07:24:17;30.70;;;7.70;;
16139;SDS011;8175;49.326;12.690;2023-05-09T07:26:43;3.57;;;3.13;;
16139;SDS011;8175;49.326;12.690;2023-05-09T07:29:08;9.70;;;3.90;;
16139;SDS011;8175;49.326;12.690;2023-05-09T07:31:34;3.90;;;2.80;;
16139;SDS011;8175;49.326;12.690;2023-05-09T07:34:00;4.53;;;3.10;;
16139;SDS011;8175;49.326;12.690;2023-05-09T07:36:25;3.27;;;2.73;;
16139;SDS011;8175;49.326;12.690;2023-05-09T07:38:51;6.53;;;3.80;;
16139;SDS011;8175;49.326;12.690;2023-05-09T07:41:17;3.50;;;3.00;;
16139;SDS011;8175;49.326;12.690;2023-05-09T07:43:43;3.50;;;3.17;;
16139;SDS011;8175;49.326;12.690;2023-05-09T07:46:09;105.55;;;20.52;;
16139;SDS011;8175;49.326;12.690;2023-05-09T07:48:34;4.50;;;2.97;;
16139;SDS011;8175;49.326;12.690;2023-05-09T07:51:00;4.95;;;2.45;;
16139;SDS011;8175;49.326;12.690;2023-05-09T07:53:26;4.25;;;2.60;;
16139;SDS011;8175;49.326;12.690;2023-05-09T07:55:51;2.97;;;1.90;;
16139;SDS011;8175;49.326;12.690;2023-05-09T07:58:17;1.90;;;1.75;;
16139;SDS011;8175;49.326;12.690;2023-05-09T08:00:43;2.53;;;1.92;;
16139;SDS011;8175;49.326;12.690;2023-05-09T08:03:09;1.80;;;1.70;;
16139;SDS011;8175;49.326;12.690;2023-05-09T08:05:34;3.88;;;1.90;;
16139;SDS011;8175;49.326;12.690;2023-05-09T08:08:00;2.13;;;1.58;;
16139;SDS011;8175;49.326;12.690;2023-05-09T08:10:26;1.88;;;1.77;;
16139;SDS011;8175;49.326;12.690;2023-05-09T08:12:54;1.95;;;1.85;;
16139;SDS011;8175;49.326;12.690;2023-05-09T08:15:20;2.15;;;1.90;;
16139;SDS011;8175;49.326;12.690;2023-05-09T08:17:46;2.08;;;1.92;;
16139;SDS011;8175;49.326;12.690;2023-05-09T08:20:12;1.70;;;1.60;;
16139;SDS011;8175;49.326;12.690;2023-05-09T08:22:38;1.83;;;1.73;;
16139;SDS011;8175;49.326;12.690;2023-05-09T08:25:04;2.00;;;1.70;;
16139;SDS011;8175;49.326;12.690;2023-05-09T08:27:31;2.58;;;1.83;;
16139;SDS011;8175;49.326;12.690;2023-05-09T08:29:57;1.70;;;1.60;;
16139;SDS011;8175;49.326;12.690;2023-05-09T08:32:22;2.03;;;1.92;;
16139;SDS011;8175;49.326;12.690;2023-05-09T08:34:48;2.40;;;1.88;;
16139;SDS011;8175;49.326;12.690;2023-05-09T08:37:13;1.77;;;1.67;;
16139;SDS011;8175;49.326;12.690;2023-05-09T08:39:39;1.80;;;1.70;;
16139;SDS011;8175;49.326;12.690;2023-05-09T08:42:05;2.40;;;1.73;;
16139;SDS011;8175;49.326;12.690;2023-05-09T08:44:32;3.88;;;2.55;;
16139;SDS011;8175;49.326;12.690;2023-05-09T08:46:59;1.98;;;1.88;;
16139;SDS011;8175;49.326;12.690;2023-05-09T08:49:25;2.40;;;2.17;;
16139;SDS011;8175;49.326;12.690;2023-05-09T08:51:52;3.72;;;1.95;;
16139;SDS011;8175;49.326;12.690;2023-05-09T08:54:18;2.42;;;2.22;;
16139;SDS011;8175;49.326;12.690;2023-05-09T08:56:46;2.20;;;2.00;;
16139;SDS011;8175;49.326;12.690;2023-05-09T08:59:12;2.10;;;1.90;;
16139;SDS011;8175;49.326;12.690;2023-05-09T09:01:38;2.28;;;2.15;;
16139;SDS011;8175;49.326;12.690;2023-05-09T09:04:05;2.83;;;1.83;;
16139;SDS011;8175;49.326;12.690;2023-05-09T09:06:33;2.72;;;2.00;;
16139;SDS011;8175;49.326;12.690;2023-05-09T09:08:59;2.55;;;2.10;;
16139;SDS011;8175;49.326;12.690;2023-05-09T09:11:26;2.47;;;2.00;;
16139;SDS011;8175;49.326;12.690;2023-05-09T09:13:53;2.10;;;2.00;;
16139;SDS011;8175;49.326;12.690;2023-05-09T09:16:23;2.40;;;2.20;;
16139;SDS011;8175;49.326;12.690;2023-05-09T09:18:51;3.08;;;2.00;;
16139;SDS011;8175;49.326;12.690;2023-05-09T09:21:18;2.53;;;2.33;;
16139;SDS011;8175;49.326;12.690;2023-05-09T09:23:45;2.17;;;1.98;;
16139;SDS011;8175;49.326;12.690;2023-05-09T09:26:12;2.10;;;1.67;;
16139;SDS011;8175;49.326;12.690;2023-05-09T09:28:38;2.40;;;2.20;;
16139;SDS011;8175;49.326;12.690;2023-05-09T09:31:20;3.35;;;2.22;;
16139;SDS011;8175;49.326;12.690;2023-05-09T09:33:47;3.05;;;2.30;;
16139;SDS011;8175;49.326;12.690;2023-05-09T09:36:13;2.60;;;2.40;;
16139;SDS011;8175;49.326;12.690;2023-05-09T09:38:39;2.50;;;2.30;;
16139;SDS011;8175;49.326;12.690;2023-05-09T09:41:07;2.70;;;2.25;;
16139;SDS011;8175;49.326;12.690;2023-05-09T09:43:37;4.32;;;2.08;;
16139;SDS011;8175;49.326;12.690;2023-05-09T09:46:03;2.30;;;2.10;;
16139;SDS011;8175;49.326;12.690;2023-05-09T09:48:32;2.95;;;1.88;;
16139;SDS011;8175;49.326;12.690;2023-05-09T09:51:08;2.55;;;2.22;;
16139;SDS011;8175;49.326;12.690;2023-05-09T09:53:38;2.38;;;2.28;;
16139;SDS011;8175;49.326;12.690;2023-05-09T09:56:04;3.60;;;2.25;;
16139;SDS011;8175;49.326;12.690;2023-05-09T09:58:30;2.08;;;1.80;;
16139;SDS011;8175;49.326;12.690;2023-05-09T10:01:09;1.73;;;1.63;;
16139;SDS011;8175;49.326;12.690;2023-05-09T10:03:41;2.30;;;2.00;;
16139;SDS011;8175;49.326;12.690;2023-05-09T10:06:12;2.97;;;1.67;;
16139;SDS011;8175;49.326;12.690;2023-05-09T10:08:39;2.63;;;2.05;;
16139;SDS011;8175;49.326;12.690;2023-05-09T10:11:05;2.20;;;2.00;;
16139;SDS011;8175;49.326;12.690;2023-05-09T10:13:34;2.28;;;2.00;;
16139;SDS011;8175;49.326;12.690;2023-05-09T10:16:02;2.08;;;1.98;;
16139;SDS011;8175;49.326;12.690;2023-05-09T10:18:29;3.05;;;2.75;;
16139;SDS011;8175;49.326;12.690;2023-05-09T10:20:56;2.35;;;1.80;;
16139;SDS011;8175;49.326;12.690;2023-05-09T10:23:32;2.50;;;2.10;;
16139;SDS011;8175;49.326;12.690;2023-05-09T10:28:36;2.47;;;2.28;;
16139;SDS011;8175;49.326;12.690;2023-05-09T10:33:52;2.20;;;1.83;;
16139;SDS011;8175;49.326;12.690;2023-05-09T10:36:21;2.47;;;1.75;;
16139;SDS011;8175;49.326;12.690;2023-05-09T10:38:52;3.60;;;2.20;;
16139;SDS011;8175;49.326;12.690;2023-05-09T10:41:18;3.28;;;2.28;;
16139;SDS011;8175;49.326;12.690;2023-05-09T10:43:46;2.10;;;1.60;;
16139;SDS011;8175;49.326;12.690;2023-05-09T10:46:11;2.20;;;1.70;;
16139;SDS011;8175;49.326;12.690;2023-05-09T10:48:37;1.95;;;1.85;;
16139;SDS011;8175;49.326;12.690;2023-05-09T10:51:04;3.13;;;2.33;;
16139;SDS011;8175;49.326;12.690;2023-05-09T10:53:41;2.20;;;2.00;;
16139;SDS011;8175;49.326;12.690;2023-05-09T10:56:08;2.60;;;1.60;;
16139;SDS011;8175;49.326;12.690;2023-05-09T10:59:04;2.67;;;1.80;;
16139;SDS011;8175;49.326;12.690;2023-05-09T11:01:37;2.58;;;2.00;;
16139;SDS011;8175;49.326;12.690;2023-05-09T11:04:09;2.17;;;1.98;;
16139;SDS011;8175;49.326;12.690;2023-05-09T11:12:18;2.17;;;1.98;;
16139;SDS011;8175;49.326;12.690;2023-05-09T11:14:48;2.30;;;2.10;;
16139;SDS011;8175;49.326;12.690;2023-05-09T11:22:15;2.20;;;2.00;;
16139;SDS011;8175;49.326;12.690;2023-05-09T11:24:47;3.53;;;1.80;;
16139;SDS011;8175;49.326;12.690;2023-05-09T11:27:20;2.65;;;2.30;;
16139;SDS011;8175;49.326;12.690;2023-05-09T11:29:52;2.30;;;2.10;;
16139;SDS011;8175;49.326;12.690;2023-05-09T11:32:25;2.17;;;1.98;;
16139;SDS011;8175;49.326;12.690;2023-05-09T11:35:07;3.20;;;2.22;;
16139;SDS011;8175;49.326;12.690;2023-05-09T11:40:29;2.92;;;2.33;;
16139;SDS011;8175;49.326;12.690;2023-05-09T11:42:56;2.78;;;1.90;;
16139;SDS011;8175;49.326;12.690;2023-05-09T11:45:23;3.08;;;2.53;;
16139;SDS011;8175;49.326;12.690;2023-05-09T11:47:53;2.60;;;1.98;;
16139;SDS011;8175;49.326;12.690;2023-05-09T11:50:20;2.20;;;2.00;;
16139;SDS011;8175;49.326;12.690;2023-05-09T11:52:47;2.25;;;2.05;;
16139;SDS011;8175;49.326;12.690;2023-05-09T11:55:14;2.95;;;2.20;;
16139;SDS011;8175;49.326;12.690;2023-05-09T11:57:42;2.42;;;2.22;;
16139;SDS011;8175;49.326;12.690;2023-05-09T12:00:19;2.92;;;2.50;;
16139;SDS011;8175;49.326;12.690;2023-05-09T12:02:46;3.72;;;2.10;;
16139;SDS011;8175;49.326;12.690;2023-05-09T12:05:13;2.05;;;1.95;;
16139;SDS011;8175;49.326;12.690;2023-05-09T12:07:40;1.80;;;1.70;;
16139;SDS011;8175;49.326;12.690;2023-05-09T12:12:35;3.70;;;1.88;;
16139;SDS011;8175;49.326;12.690;2023-05-09T12:15:06;2.33;;;2.13;;
16139;SDS011;8175;49.326;12.690;2023-05-09T12:17:33;3.25;;;2.30;;
16139;SDS011;8175;49.326;12.690;2023-05-09T12:20:02;2.22;;;2.03;;
16139;SDS011;8175;49.326;12.690;2023-05-09T12:22:31;2.47;;;1.98;;
16139;SDS011;8175;49.326;12.690;2023-05-09T12:25:03;2.72;;;1.75;;
16139;SDS011;8175;49.326;12.690;2023-05-09T12:27:31;3.90;;;2.50;;
16139;SDS011;8175;49.326;12.690;2023-05-09T12:29:59;6.40;;;2.20;;
16139;SDS011;8175;49.326;12.690;2023-05-09T12:32:25;2.03;;;1.90;;
16139;SDS011;8175;49.326;12.690;2023-05-09T12:34:57;1.90;;;1.80;;
16139;SDS011;8175;49.326;12.690;2023-05-09T12:37:24;3.13;;;2.22;;
16139;SDS011;8175;49.326;12.690;2023-05-09T12:42:45;2.17;;;2.05;;
16139;SDS011;8175;49.326;12.690;2023-05-09T12:45:10;2.28;;;2.13;;
16139;SDS011;8175;49.326;12.690;2023-05-09T12:47:36;2.45;;;2.25;;
16139;SDS011;8175;49.326;12.690;2023-05-09T12:50:03;2.33;;;2.13;;
16139;SDS011;8175;49.326;12.690;2023-05-09T12:52:37;1.92;;;1.73;;
16139;SDS011;8175;49.326;12.690;2023-05-09T12:55:08;2.53;;;2.10;;
16139;SDS011;8175;49.326;12.690;2023-05-09T12:57:35;1.90;;;1.80;;
16139;SDS011;8175;49.326;12.690;2023-05-09T13:00:02;2.13;;;2.00;;
16139;SDS011;8175;49.326;12.690;2023-05-09T13:02:36;3.20;;;2.25;;
16139;SDS011;8175;49.326;12.690;2023-05-09T13:05:10;2.22;;;2.03;;
16139;SDS011;8175;49.326;12.690;2023-05-09T13:07:37;1.95;;;1.85;;
16139;SDS011;8175;49.326;12.690;2023-05-09T13:10:11;2.60;;;2.10;;
16139;SDS011;8175;49.326;12.690;2023-05-09T13:12:45;2.47;;;2.28;;
16139;SDS011;8175;49.326;12.690;2023-05-09T13:15:15;2.30;;;2.10;;
16139;SDS011;8175;49.326;12.690;2023-05-09T13:17:44;2.13;;;2.03;;
16139;SDS011;8175;49.326;12.690;2023-05-09T13:20:13;2.00;;;1.90;;
16139;SDS011;8175;49.326;12.690;2023-05-09T13:22:39;1.92;;;1.83;;
16139;SDS011;8175;49.326;12.690;2023-05-09T13:25:05;2.22;;;2.03;;
16139;SDS011;8175;49.326;12.690;2023-05-09T13:27:32;2.40;;;2.20;;
16139;SDS011;8175;49.326;12.690;2023-05-09T13:29:58;2.30;;;2.10;;
16139;SDS011;8175;49.326;12.690;2023-05-09T13:32:24;2.30;;;2.05;;
16139;SDS011;8175;49.326;12.690;2023-05-09T13:34:50;2.33;;;2.10;;
16139;SDS011;8175;49.326;12.690;2023-05-09T13:37:16;2.30;;;2.10;;
16139;SDS011;8175;49.326;12.690;2023-05-09T13:39:42;2.80;;;2.33;;
16139;SDS011;8175;49.326;12.690;2023-05-09T13:42:07;2.22;;;2.00;;
16139;SDS011;8175;49.326;12.690;2023-05-09T13:44:33;3.95;;;2.00;;
16139;SDS011;8175;49.326;12.690;2023-05-09T13:46:59;2.50;;;2.30;;
16139;SDS011;8175;49.326;12.690;2023-05-09T13:49:25;2.45;;;2.25;;
16139;SDS011;8175;49.326;12.690;2023-05-09T13:51:51;1.98;;;1.77;;
16139;SDS011;8175;49.326;12.690;2023-05-09T13:54:21;2.10;;;2.00;;
16139;SDS011;8175;49.326;12.690;2023-05-09T13:56:47;2.80;;;2.05;;
16139;SDS011;8175;49.326;12.690;2023-05-09T13:59:13;2.97;;;2.10;;
16139;SDS011;8175;49.326;12.690;2023-05-09T14:01:39;2.25;;;2.05;;
16139;SDS011;8175;49.326;12.690;2023-05-09T14:04:05;2.72;;;2.20;;
16139;SDS011;8175;49.326;12.690;2023-05-09T14:06:30;2.40;;;2.20;;
16139;SDS011;8175;49.326;12.690;2023-05-09T14:08:57;3.15;;;2.20;;
16139;SDS011;8175;49.326;12.690;2023-05-09T14:11:23;2.30;;;2.10;;
16139;SDS011;8175;49.326;12.690;2023-05-09T14:13:49;2.25;;;2.10;;
16139;SDS011;8175;49.326;12.690;2023-05-09T14:16:16;2.42;;;2.22;;
16139;SDS011;8175;49.326;12.690;2023-05-09T14:18:46;2.53;;;2.33;;
16139;SDS011;8175;49.326;12.690;2023-05-09T14:21:12;2.42;;;2.10;;
16139;SDS011;8175;49.326;12.690;2023-05-09T14:23:38;2.50;;;2.10;;
16139;SDS011;8175;49.326;12.690;2023-05-09T14:26:04;2.45;;;2.20;;
16139;SDS011;8175;49.326;12.690;2023-05-09T14:28:29;2.35;;;2.10;;
16139;SDS011;8175;49.326;12.690;2023-05-09T14:30:55;2.47;;;2.15;;
16139;SDS011;8175;49.326;12.690;2023-05-09T14:33:21;2.83;;;2.00;;
16139;SDS011;8175;49.326;12.690;2023-05-09T14:35:47;4.93;;;2.55;;
16139;SDS011;8175;49.326;12.690;2023-05-09T14:38:13;4.15;;;2.30;;
16139;SDS011;8175;49.326;12.690;2023-05-09T14:40:39;3.20;;;2.05;;
16139;SDS011;8175;49.326;12.690;2023-05-09T14:43:05;2.42;;;2.22;;
16139;SDS011;8175;49.326;12.690;2023-05-09T14:45:31;2.45;;;2.25;;
16139;SDS011;8175;49.326;12.690;2023-05-09T14:47:57;4.50;;;2.25;;
16139;SDS011;8175;49.326;12.690;2023-05-09T14:50:23;2.55;;;2.17;;
16139;SDS011;8175;49.326;12.690;2023-05-09T14:52:49;2.40;;;2.20;;
16139;SDS011;8175;49.326;12.690;2023-05-09T14:55:16;3.40;;;2.70;;
16139;SDS011;8175;49.326;12.690;2023-05-09T14:57:42;2.75;;;2.42;;
16139;SDS011;8175;49.326;12.690;2023-05-09T15:00:08;2.22;;;2.03;;
16139;SDS011;8175;49.326;12.690;2023-05-09T15:02:35;2.45;;;2.25;;
16139;SDS011;8175;49.326;12.690;2023-05-09T15:05:01;2.35;;;2.08;;
16139;SDS011;8175;49.326;12.690;2023-05-09T15:07:26;3.78;;;2.25;;
16139;SDS011;8175;49.326;12.690;2023-05-09T15:09:53;2.42;;;2.22;;
16139;SDS011;8175;49.326;12.690;2023-05-09T15:12:18;2.40;;;2.20;;
16139;SDS011;8175;49.326;12.690;2023-05-09T15:14:44;2.95;;;2.53;;
16139;SDS011;8175;49.326;12.690;2023-05-09T15:17:10;2.53;;;2.33;;
16139;SDS011;8175;49.326;12.690;2023-05-09T15:19:35;7.60;;;3.47;;
16139;SDS011;8175;49.326;12.690;2023-05-09T15:22:02;9.07;;;5.68;;
16139;SDS011;8175;49.326;12.690;2023-05-09T15:24:32;3.05;;;2.10;;
16139;SDS011;8175;49.326;12.690;2023-05-09T15:26:58;2.58;;;2.30;;
16139;SDS011;8175;49.326;12.690;2023-05-09T15:29:24;9.25;;;5.35;;
16139;SDS011;8175;49.326;12.690;2023-05-09T15:31:50;16.00;;;8.23;;
16139;SDS011;8175;49.326;12.690;2023-05-09T15:34:15;4.18;;;2.50;;
16139;SDS011;8175;49.326;12.690;2023-05-09T15:36:41;2.50;;;2.10;;
16139;SDS011;8175;49.326;12.690;2023-05-09T15:39:07;2.50;;;2.30;;
16139;SDS011;8175;49.326;12.690;2023-05-09T15:41:32;2.92;;;2.17;;
16139;SDS011;8175;49.326;12.690;2023-05-09T15:43:58;4.63;;;3.05;;
16139;SDS011;8175;49.326;12.690;2023-05-09T15:46:24;2.97;;;2.70;;
16139;SDS011;8175;49.326;12.690;2023-05-09T15:48:49;2.67;;;2.47;;
16139;SDS011;8175;49.326;12.690;2023-05-09T15:51:15;3.78;;;2.55;;
16139;SDS011;8175;49.326;12.690;2023-05-09T15:53:41;2.60;;;2.40;;
16139;SDS011;8175;49.326;12.690;2023-05-09T15:56:07;3.20;;;2.38;;
16139;SDS011;8175;49.326;12.690;2023-05-09T15:58:33;1.95;;;1.85;;
16139;SDS011;8175;49.326;12.690;2023-05-09T16:00:59;2.90;;;2.70;;
16139;SDS011;8175;49.326;12.690;2023-05-09T16:03:25;4.35;;;2.50;;
16139;SDS011;8175;49.326;12.690;2023-05-09T16:05:51;2.75;;;2.55;;
16139;SDS011;8175;49.326;12.690;2023-05-09T16:08:17;2.45;;;2.25;;
16139;SDS011;8175;49.326;12.690;2023-05-09T16:10:42;4.07;;;2.28;;
16139;SDS011;8175;49.326;12.690;2023-05-09T16:13:12;4.50;;;2.05;;
16139;SDS011;8175;49.326;12.690;2023-05-09T16:15:39;2.28;;;2.08;;
16139;SDS011;8175;49.326;12.690;2023-05-09T16:18:04;5.28;;;2.42;;
16139;SDS011;8175;49.326;12.690;2023-05-09T16:20:30;2.35;;;2.08;;
16139;SDS011;8175;49.326;12.690;2023-05-09T16:22:56;1.92;;;1.83;;
16139;SDS011;8175;49.326;12.690;2023-05-09T16:25:21;2.63;;;2.40;;
16139;SDS011;8175;49.326;12.690;2023-05-09T16:27:47;2.42;;;2.22;;
16139;SDS011;8175;49.326;12.690;2023-05-09T16:30:13;3.17;;;2.35;;
16139;SDS011;8175;49.326;12.690;2023-05-09T16:32:39;2.88;;;2.25;;
16139;SDS011;8175;49.326;12.690;2023-05-09T16:35:04;2.88;;;2.08;;
16139;SDS011;8175;49.326;12.690;2023-05-09T16:37:31;4.03;;;2.25;;
16139;SDS011;8175;49.326;12.690;2023-05-09T16:39:57;3.35;;;2.33;;
16139;SDS011;8175;49.326;12.690;2023-05-09T16:42:23;2.35;;;2.15;;
16139;SDS011;8175;49.326;12.690;2023-05-09T16:44:49;2.17;;;2.03;;
16139;SDS011;8175;49.326;12.690;2023-05-09T16:47:15;2.20;;;1.98;;
16139;SDS011;8175;49.326;12.690;2023-05-09T16:49:40;2.35;;;2.15;;
16139;SDS011;8175;49.326;12.690;2023-05-09T16:52:06;2.70;;;1.92;;
16139;SDS011;8175;49.326;12.690;2023-05-09T16:54:31;2.55;;;1.98;;
16139;SDS011;8175;49.326;12.690;2023-05-09T16:56:57;2.35;;;1.88;;
16139;SDS011;8175;49.326;12.690;2023-05-09T16:59:23;3.37;;;2.23;;
16139;SDS011;8175;49.326;12.690;2023-05-09T17:01:49;2.80;;;2.40;;
16139;SDS011;8175;49.326;12.690;2023-05-09T17:04:15;4.50;;;2.20;;
16139;SDS011;8175;49.326;12.690;2023-05-09T17:06:40;3.37;;;2.23;;
16139;SDS011;8175;49.326;12.690;2023-05-09T17:09:06;2.00;;;1.80;;
16139;SDS011;8175;49.326;12.690;2023-05-09T17:11:32;3.27;;;1.93;;
16139;SDS011;8175;49.326;12.690;2023-05-09T17:13:58;3.47;;;2.33;;
16139;SDS011;8175;49.326;12.690;2023-05-09T17:16:26;2.70;;;2.00;;
16139;SDS011;8175;49.326;12.690;2023-05-09T17:18:51;2.33;;;2.13;;
16139;SDS011;8175;49.326;12.690;2023-05-09T17:21:17;5.17;;;2.20;;
16139;SDS011;8175;49.326;12.690;2023-05-09T17:23:44;4.10;;;2.13;;
16139;SDS011;8175;49.326;12.690;2023-05-09T17:26:10;2.97;;;2.10;;
16139;SDS011;8175;49.326;12.690;2023-05-09T17:28:35;3.20;;;2.20;;
16139;SDS011;8175;49.326;12.690;2023-05-09T17:31:01;2.73;;;2.30;;
16139;SDS011;8175;49.326;12.690;2023-05-09T17:33:27;2.53;;;2.33;;
16139;SDS011;8175;49.326;12.690;2023-05-09T17:35:53;3.57;;;2.50;;
16139;SDS011;8175;49.326;12.690;2023-05-09T17:38:19;4.63;;;2.57;;
16139;SDS011;8175;49.326;12.690;2023-05-09T17:40:45;2.67;;;2.13;;
16139;SDS011;8175;49.326;12.690;2023-05-09T17:43:11;4.03;;;2.40;;
16139;SDS011;8175;49.326;12.690;2023-05-09T17:45:39;2.40;;;2.13;;
16139;SDS011;8175;49.326;12.690;2023-05-09T17:48:06;3.60;;;2.27;;
16139;SDS011;8175;49.326;12.690;2023-05-09T17:50:32;2.97;;;2.43;;
16139;SDS011;8175;49.326;12.690;2023-05-09T17:52:57;2.67;;;2.27;;
16139;SDS011;8175;49.326;12.690;2023-05-09T17:55:23;2.83;;;2.53;;
16139;SDS011;8175;49.326;12.690;2023-05-09T17:57:49;2.63;;;2.43;;
16139;SDS011;8175;49.326;12.690;2023-05-09T18:00:15;2.77;;;2.53;;
16139;SDS011;8175;49.326;12.690;2023-05-09T18:02:41;2.53;;;2.33;;
16139;SDS011;8175;49.326;12.690;2023-05-09T18:05:07;3.93;;;2.67;;